Time;durP1;ratioP1;P1;durP2;ratioP2;P2;SDS_P1;SDS_P2;PMS_P1;PMS_P2;Temp;Humidity;BMP_temperature;BMP_pressure;BME280_temperature;BME280_humidity;BME280_pressure;Samples;Min_cycle;Max_cycle;Signal;HPM_P1;HPM_P2
2022/03/12 12:56:20;;;;;;;35.28;8.00;;;20.00;39.20;;;;;;6299275;28;20390;-60
2022/03/12 12:59:21;;;;;;;59.28;8.65;;;20.10;39.70;;;;;;6251725;27;20057;-64
2022/03/12 13:02:40;;;;;;;34.00;8.10;;;20.20;61.80;;;;;;6242569;28;20517;-64
2022/03/12 13:05:41;;;;;;;35.53;9.18;;;20.10;64.30;;;;;;6244381;28;20034;-64
2022/03/12 13:08:43;;;;;;;29.00;9.45;;;20.00;64.70;;;;;;6191668;28;20523;-64
2022/03/12 13:11:57;;;;;;;27.02;7.63;;;20.00;65.00;;;;;;6232003;28;20060;-63
2022/03/12 13:14:58;;;;;;;18.10;7.72;;;19.90;64.90;;;;;;6220963;28;20449;-64
2022/03/12 13:17:59;;;;;;;34.60;7.82;;;19.90;64.90;;;;;;6235074;28;20026;-65
2022/03/12 13:21:00;;;;;;;22.00;8.05;;;19.90;65.00;;;;;;6234860;28;20030;-64
2022/03/12 13:24:00;;;;;;;18.13;6.72;;;19.90;65.00;;;;;;6221708;28;20026;-65
2022/03/12 13:27:01;;;;;;;25.73;7.32;;;19.90;65.20;;;;;;6231652;28;20430;-64
2022/03/12 13:30:16;;;;;;;16.05;6.85;;;19.90;66.40;;;;;;6231271;28;20030;-64
2022/03/12 13:33:17;;;;;;;17.90;6.97;;;19.80;65.90;;;;;;6219876;28;20023;-63
2022/03/12 13:36:29;;;;;;;18.83;7.78;;;19.80;66.00;;;;;;6219405;28;20041;-63
2022/03/12 13:39:33;;;;;;;19.05;6.95;;;19.90;66.00;;;;;;6219819;28;20045;-63
2022/03/12 13:42:33;;;;;;;16.25;7.20;;;19.90;66.20;;;;;;6219369;28;20460;-63
2022/03/12 13:45:34;;;;;;;15.73;6.82;;;19.80;66.10;;;;;;6225545;28;20037;-64
2022/03/12 13:48:34;;;;;;;59.97;11.07;;;19.90;66.30;;;;;;6241137;28;20026;-63
2022/03/12 13:51:39;;;;;;;48.20;10.50;;;19.90;66.60;;;;;;6224317;28;20106;-64
2022/03/12 13:54:39;;;;;;;43.22;9.98;;;19.90;66.10;;;;;;6218594;28;20056;-64
2022/03/12 13:57:40;;;;;;;40.17;10.02;;;19.90;66.10;;;;;;6218755;28;20026;-64
2022/03/12 14:00:43;;;;;;;30.63;8.37;;;19.90;66.10;;;;;;6218910;28;20423;-64
2022/03/12 14:03:46;;;;;;;37.85;9.02;;;19.90;66.20;;;;;;6218989;28;20081;-64
2022/03/12 14:06:47;;;;;;;48.10;9.68;;;19.80;66.20;;;;;;6220045;28;20034;-64
2022/03/12 14:09:48;;;;;;;34.20;9.20;;;19.80;66.20;;;;;;6210014;28;20530;-65
2022/03/12 14:13:20;;;;;;;28.75;8.95;;;19.80;66.20;;;;;;6225802;28;20026;-65
2022/03/12 14:16:21;;;;;;;35.50;10.40;;;19.80;66.30;;;;;;6203273;28;20089;-64
2022/03/12 14:19:22;;;;;;;31.13;9.63;;;19.80;66.30;;;;;;6191669;28;20038;-63
2022/03/12 14:22:23;;;;;;;31.97;9.50;;;19.80;66.20;;;;;;6227152;28;20038;-64
2022/03/12 14:25:30;;;;;;;18.92;8.35;;;19.80;66.20;;;;;;6226652;28;20037;-64
2022/03/12 14:28:31;;;;;;;26.77;8.45;;;19.80;66.20;;;;;;6226901;28;20048;-64
2022/03/12 14:31:32;;;;;;;24.70;8.48;;;19.80;66.20;;;;;;6226277;28;20464;-64
2022/03/12 14:34:34;;;;;;;27.67;8.90;;;19.70;66.10;;;;;;6226235;28;20423;-64
2022/03/12 14:37:34;;;;;;;;;;;19.70;66.10;;;;;;6226789;28;20057;-64
2022/03/12 14:40:35;;;;;;;25.80;8.05;;;19.70;66.20;;;;;;6226114;28;19905;-64
2022/03/12 14:43:36;;;;;;;24.13;8.63;;;19.70;66.10;;;;;;6226372;28;20034;-66
2022/03/12 14:46:46;;;;;;;17.00;7.93;;;19.70;66.10;;;;;;6225975;28;20093;-66
2022/03/12 14:49:52;;;;;;;24.40;8.77;;;19.70;66.80;;;;;;6226380;28;20030;-66
2022/03/12 14:52:54;;;;;;;21.80;8.13;;;19.70;66.10;;;;;;6225885;28;20030;-66
2022/03/12 14:55:57;;;;;;;20.50;8.02;;;19.70;66.10;;;;;;6227070;28;20053;-66
2022/03/12 14:58:58;;;;;;;20.17;8.15;;;19.70;66.10;;;;;;6225884;28;20480;-66
2022/03/12 15:02:08;;;;;;;19.42;7.68;;;19.70;66.10;;;;;;6226259;28;20040;-64
2022/03/12 15:05:10;;;;;;;17.13;7.30;;;19.70;66.10;;;;;;6225371;28;20034;-63
2022/03/12 15:08:12;;;;;;;;;;;19.60;66.00;;;;;;6225802;28;20030;-63
2022/03/12 15:11:13;;;;;;;18.67;7.60;;;19.70;66.10;;;;;;6225515;28;19905;-63
2022/03/12 15:14:16;;;;;;;27.67;8.57;;;19.70;66.00;;;;;;6225289;28;20571;-73
2022/03/12 15:17:31;;;;;;;23.92;8.52;;;19.70;66.20;;;;;;6222713;28;20037;-70
2022/03/12 15:20:33;;;;;;;30.75;9.50;;;19.80;65.50;;;;;;6222877;28;20114;-74
2022/03/12 15:23:34;;;;;;;23.90;8.65;;;19.80;65.40;;;;;;6225780;28;20033;-65
2022/03/12 15:26:34;;;;;;;29.67;8.90;;;19.90;64.90;;;;;;6225249;28;20125;-67
2022/03/12 15:29:35;;;;;;;23.38;8.40;;;20.00;65.10;;;;;;6224824;28;20026;-67
2022/03/12 15:32:36;;;;;;;17.95;8.48;;;20.00;64.50;;;;;;6224065;28;20026;-67
2022/03/12 15:35:44;;;;;;;24.80;7.88;;;20.00;64.00;;;;;;6224611;28;20034;-67
2022/03/12 15:38:52;;;;;;;19.35;8.63;;;20.10;63.90;;;;;;6224698;28;20399;-67
2022/03/12 15:41:54;;;;;;;14.93;7.60;;;20.10;63.90;;;;;;6224633;28;20373;-67
2022/03/12 15:44:54;;;;;;;11.77;7.47;;;20.10;63.90;;;;;;6220563;28;20402;-67
2022/03/12 15:47:58;;;;;;;15.30;8.18;;;20.10;63.70;;;;;;6220141;28;20071;-68
2022/03/12 15:50:58;;;;;;;19.45;7.93;;;20.20;63.50;;;;;;6216427;28;20038;-66
2022/03/12 15:53:59;;;;;;;17.25;7.97;;;20.10;63.40;;;;;;6201368;28;20061;-65
2022/03/12 15:57:03;;;;;;;14.45;7.35;;;20.20;64.30;;;;;;6199949;28;20031;-66
2022/03/12 16:00:08;;;;;;;15.40;8.07;;;20.20;64.20;;;;;;6199643;28;20113;-67
2022/03/12 16:03:08;;;;;;;13.05;6.53;;;20.20;64.10;;;;;;6199520;28;20076;-67
2022/03/12 16:06:09;;;;;;;14.82;6.30;;;20.20;64.10;;;;;;6199469;28;20052;-67
2022/03/12 16:09:11;;;;;;;13.00;7.25;;;20.20;64.00;;;;;;6201611;28;20054;-65
2022/03/12 16:12:17;;;;;;;14.38;8.10;;;20.30;64.10;;;;;;6203770;28;20041;-66
2022/03/12 16:15:19;;;;;;;18.52;7.60;;;20.20;64.60;;;;;;6201975;28;20064;-66
2022/03/12 16:18:23;;;;;;;10.20;7.60;;;20.20;65.10;;;;;;6206164;28;20560;-67
2022/03/12 16:21:23;;;;;;;15.25;7.30;;;20.10;65.50;;;;;;6202385;28;20042;-65
2022/03/12 16:24:24;;;;;;;13.85;7.10;;;20.10;65.80;;;;;;6202557;28;20463;-66
2022/03/12 16:27:27;;;;;;;12.50;6.65;;;20.00;65.90;;;;;;6202394;28;20027;-66
2022/03/12 16:30:28;;;;;;;11.05;6.78;;;20.00;66.00;;;;;;6201548;28;20027;-66
2022/03/12 16:33:29;;;;;;;15.50;7.25;;;20.00;66.10;;;;;;6201967;28;20396;-66
2022/03/12 16:36:31;;;;;;;11.52;6.57;;;20.00;66.10;;;;;;6201793;28;20049;-67
2022/03/12 16:39:31;;;;;;;12.95;6.78;;;20.00;66.20;;;;;;6200641;28;20034;-67
2022/03/12 16:42:34;;;;;;;11.93;6.78;;;19.90;66.20;;;;;;6201201;28;20038;-67
2022/03/12 16:45:36;;;;;;;10.35;6.57;;;19.90;66.20;;;;;;6201564;28;20026;-67
2022/03/12 16:48:37;;;;;;;12.10;7.18;;;19.90;66.30;;;;;;6207193;28;20034;-65
2022/03/12 16:51:38;;;;;;;12.30;7.03;;;19.90;65.60;;;;;;6221966;28;20111;-65
2022/03/12 16:54:39;;;;;;;11.00;6.68;;;20.00;65.10;;;;;;6215298;28;20061;-67
2022/03/12 16:57:48;;;;;;;10.18;6.60;;;20.00;65.40;;;;;;6212587;28;20099;-66
2022/03/12 17:00:49;;;;;;;15.60;7.32;;;20.00;65.60;;;;;;6196698;28;20034;-66
2022/03/12 17:03:50;;;;;;;11.63;6.70;;;20.00;65.80;;;;;;6197693;28;20022;-66
2022/03/12 17:06:51;;;;;;;19.67;7.53;;;20.00;65.80;;;;;;6199704;28;20077;-66
2022/03/12 17:09:51;;;;;;;13.03;7.83;;;20.00;65.80;;;;;;6199297;28;20425;-67
2022/03/12 17:12:53;;;;;;;14.30;7.28;;;19.90;66.40;;;;;;6183526;28;20280;-61
2022/03/12 17:15:54;;;;;;;16.95;7.68;;;19.90;65.80;;;;;;6199396;28;20049;-70
2022/03/12 17:18:55;;;;;;;18.35;7.88;;;20.00;65.10;;;;;;6201049;28;20361;-69
2022/03/12 17:21:56;;;;;;;17.70;7.97;;;20.00;65.20;;;;;;6199651;28;20050;-69
2022/03/12 17:24:57;;;;;;;13.48;7.28;;;19.90;65.30;;;;;;6199436;28;20460;-69
2022/03/12 17:27:58;;;;;;;18.15;7.07;;;19.90;65.40;;;;;;6210016;28;20036;-67
2022/03/12 17:30:58;;;;;;;13.70;8.07;;;19.90;66.50;;;;;;6201567;28;20484;-68
2022/03/12 17:33:59;;;;;;;15.18;7.57;;;19.90;65.90;;;;;;6197341;28;20034;-71
2022/03/12 17:37:02;;;;;;;13.40;6.80;;;19.90;65.90;;;;;;6208097;28;20380;-69
2022/03/12 17:40:05;;;;;;;9.63;6.68;;;19.90;65.80;;;;;;6198469;28;20026;-68
